createdAt,value
2022-10-11T00:00:31.542Z,100983.38
2022-10-11T00:02:59.515Z,100988.63
2022-10-11T00:05:28.651Z,100991.31
2022-10-11T00:07:56.958Z,100985.94
2022-10-11T00:10:25.454Z,100991.59
2022-10-11T00:12:53.254Z,100994.41
2022-10-11T00:15:22.757Z,100995.38
2022-10-11T00:17:51.025Z,100989.16
2022-10-11T00:20:19.012Z,100989.16
2022-10-11T00:22:49.320Z,100988.53
2022-10-11T00:25:18.066Z,100993.91
2022-10-11T00:27:46.260Z,100989.53
2022-10-11T00:30:14.943Z,100996.75
2022-10-11T00:32:42.670Z,100990.66
2022-10-11T00:35:11.177Z,100996.88
2022-10-11T00:37:40.116Z,100989.81
2022-10-11T00:40:14.391Z,101002.22
2022-10-11T00:42:42.208Z,100997.84
2022-10-11T00:45:54.967Z,101005.31
2022-10-11T00:48:27.478Z,101009.81
2022-10-11T00:50:55.959Z,101009.94
2022-10-11T00:53:24.256Z,101008.97
2022-10-11T00:55:56.700Z,101013.75
2022-10-11T00:58:24.968Z,101015.59
2022-10-11T01:00:54.097Z,101011.34
2022-10-11T01:03:26.185Z,101018.78
2022-10-11T01:05:54.208Z,101012.84
2022-10-11T01:08:23.230Z,101017.25
2022-10-11T01:10:51.302Z,101016.66
2022-10-11T01:13:30.741Z,101017.50
2022-10-11T01:16:08.955Z,101015.81
2022-10-11T01:18:45.064Z,101011.66
2022-10-11T01:21:24.959Z,101016.19
2022-10-11T01:24:15.953Z,101017.81
2022-10-11T01:27:31.134Z,101019.19
2022-10-11T01:30:08.643Z,101016.03
2022-10-11T01:32:46.040Z,101021.28
2022-10-11T01:35:22.246Z,101019.84
2022-10-11T01:37:56.091Z,101019.41
2022-10-11T01:40:28.790Z,101019.25
2022-10-11T01:42:57.923Z,101029.00
2022-10-11T01:45:26.597Z,101030.22
2022-10-11T01:48:05.002Z,101032.31
2022-10-11T01:50:40.287Z,101038.38
2022-10-11T01:53:24.259Z,101037.19
2022-10-11T01:55:56.452Z,101041.09
2022-10-11T01:58:38.609Z,101045.50
2022-10-11T02:01:16.679Z,101043.06
2022-10-11T02:03:52.385Z,101046.72
2022-10-11T02:06:31.425Z,101048.41
2022-10-11T02:09:08.245Z,101047.69
2022-10-11T02:11:37.461Z,101051.59
2022-10-11T02:14:11.909Z,101044.81
2022-10-11T02:16:43.892Z,101052.84
2022-10-11T02:19:16.112Z,101051.59
2022-10-11T02:21:48.255Z,101056.63
2022-10-11T02:24:20.619Z,101059.81
2022-10-11T02:26:54.669Z,101060.91
2022-10-11T02:29:25.617Z,101063.94
2022-10-11T02:31:55.520Z,101064.56
2022-10-11T02:34:27.545Z,101065.81
2022-10-11T02:37:03.355Z,101063.00
2022-10-11T02:39:36.724Z,101068.25
2022-10-11T02:42:08.087Z,101066.88
2022-10-11T02:44:39.956Z,101066.44
2022-10-11T02:47:08.725Z,101073.00
2022-10-11T02:49:37.980Z,101071.53
2022-10-11T02:52:06.930Z,101077.63
2022-10-11T02:54:34.789Z,101070.56
2022-10-11T02:57:02.515Z,101074.56
2022-10-11T02:59:30.201Z,101084.81
2022-10-11T03:01:57.951Z,101079.22
2022-10-11T03:04:25.759Z,101073.13
2022-10-11T03:06:54.862Z,101080.53
2022-10-11T03:09:22.634Z,101090.41
2022-10-11T03:11:50.367Z,101090.50
2022-10-11T03:14:18.112Z,101089.16
2022-10-11T03:16:45.844Z,101086.75
2022-10-11T03:19:18.319Z,101093.88
2022-10-11T03:21:47.246Z,101097.78
2022-10-11T03:24:16.350Z,101099.00
2022-10-11T03:26:44.078Z,101096.56
2022-10-11T03:29:11.900Z,101105.19
2022-10-11T03:31:39.665Z,101105.31
2022-10-11T03:34:07.778Z,101106.38
2022-10-11T03:36:35.455Z,101106.38
2022-10-11T03:39:03.600Z,101097.41
2022-10-11T03:41:32.897Z,101102.88
2022-10-11T03:44:00.599Z,101100.19
2022-10-11T03:46:28.382Z,101108.59
2022-10-11T03:48:56.069Z,101109.53
2022-10-11T03:51:23.824Z,101107.13
2022-10-11T03:53:51.557Z,101110.03
2022-10-11T03:56:19.310Z,101112.69
2022-10-11T03:58:48.405Z,101114.50
2022-10-11T04:01:16.394Z,101111.97
2022-10-11T04:03:44.154Z,101115.63
2022-10-11T04:06:11.866Z,101112.69
2022-10-11T04:08:39.872Z,101115.34
2022-10-11T04:11:07.586Z,101121.91
2022-10-11T04:13:35.283Z,101128.25
2022-10-11T04:16:05.002Z,101137.72
2022-10-11T04:18:32.809Z,101137.72
2022-10-11T04:21:00.544Z,101138.69
2022-10-11T04:23:28.407Z,101143.19
2022-10-11T04:25:56.174Z,101144.03
2022-10-11T04:28:24.031Z,101145.75
2022-10-11T04:30:52.153Z,101146.94
2022-10-11T04:33:21.800Z,101153.13
2022-10-11T04:35:49.764Z,101162.84
2022-10-11T04:38:17.499Z,101163.81
2022-10-11T04:40:45.266Z,101158.69
2022-10-11T04:43:15.264Z,101165.75
2022-10-11T04:45:43.227Z,101172.19
2022-10-11T04:48:11.272Z,101179.13
2022-10-11T04:50:40.458Z,101179.75
2022-10-11T04:53:08.161Z,101182.41
2022-10-11T04:55:36.290Z,101183.25
2022-10-11T04:58:04.032Z,101191.16
2022-10-11T05:00:31.907Z,101189.22
2022-10-11T05:02:59.658Z,101195.63
2022-10-11T05:05:27.534Z,101193.09
2022-10-11T05:07:56.580Z,101200.59
2022-10-11T05:10:24.421Z,101204.81
2022-10-11T05:12:52.174Z,101210.63
2022-10-11T05:15:20.050Z,101211.94
2022-10-11T05:17:47.893Z,101216.47
2022-10-11T05:20:15.883Z,101220.31
2022-10-11T05:22:43.732Z,101225.41
2022-10-11T05:25:12.848Z,101213.78
2022-10-11T05:27:40.620Z,101230.50
2022-10-11T05:30:09.562Z,101228.91
2022-10-11T05:32:37.865Z,101235.88
2022-10-11T05:35:07.007Z,101237.69
2022-10-11T05:37:34.779Z,101241.09
2022-10-11T05:40:02.536Z,101243.13
2022-10-11T05:42:31.718Z,101254.13
2022-10-11T05:44:59.477Z,101251.03
2022-10-11T05:47:27.194Z,101253.16
2022-10-11T05:49:54.880Z,101242.06
2022-10-11T05:52:22.663Z,101245.38
2022-10-11T05:54:50.697Z,101246.47
2022-10-11T05:57:18.534Z,101252.66
2022-10-11T05:59:47.595Z,101253.63
2022-10-11T06:02:15.341Z,101260.56
2022-10-11T06:04:43.101Z,101267.72
2022-10-11T06:07:10.846Z,101268.69
2022-10-11T06:09:39.675Z,101275.41
2022-10-11T06:12:07.737Z,101280.75
2022-10-11T06:14:36.336Z,101283.50
2022-10-11T06:17:05.411Z,101285.19
2022-10-11T06:19:33.512Z,101277.75
2022-10-11T06:22:01.318Z,101284.16
2022-10-11T06:24:29.020Z,101287.69
2022-10-11T06:26:56.980Z,101287.69
2022-10-11T06:29:24.689Z,101281.72
2022-10-11T06:31:52.511Z,101302.50
2022-10-11T06:34:21.744Z,101294.81
2022-10-11T06:36:49.486Z,101298.34
2022-10-11T06:39:17.265Z,101303.91
2022-10-11T06:41:44.969Z,101304.31
2022-10-11T06:44:14.446Z,101309.84
2022-10-11T06:46:42.760Z,101306.88
2022-10-11T06:49:10.476Z,101313.38
2022-10-11T06:51:39.819Z,101308.03
2022-10-11T06:54:07.592Z,101315.19
2022-10-11T06:56:35.356Z,101318.88
2022-10-11T06:59:03.559Z,101325.94
2022-10-11T07:01:32.725Z,101323.81
2022-10-11T07:04:01.664Z,101330.34
2022-10-11T07:06:31.102Z,101329.25
2022-10-11T07:09:01.914Z,101337.59
2022-10-11T07:11:29.955Z,101345.28
2022-10-11T07:13:59.229Z,101347.75
2022-10-11T07:16:28.470Z,101343.25
2022-10-11T07:19:00.721Z,101356.06
2022-10-11T07:21:29.745Z,101356.81
2022-10-11T07:23:57.507Z,101357.47
2022-10-11T07:26:27.081Z,101355.97
2022-10-11T07:28:55.049Z,101358.31
2022-10-11T07:31:25.130Z,101359.63
2022-10-11T07:33:53.242Z,101363.88
2022-10-11T07:36:23.260Z,101372.44
2022-10-11T07:38:51.356Z,101366.75
2022-10-11T07:41:19.587Z,101360.44
2022-10-11T07:43:49.841Z,101356.09
2022-10-11T07:46:17.977Z,101362.06
2022-10-11T07:48:45.777Z,101363.66
2022-10-11T07:51:16.204Z,101360.66
2022-10-11T07:53:46.091Z,101368.59
2022-10-11T07:56:32.222Z,101371.28
2022-10-11T07:59:03.510Z,101376.09
2022-10-11T08:01:32.296Z,101371.47
2022-10-11T08:04:00.203Z,101365.59
2022-10-11T08:06:31.652Z,101372.56
2022-10-11T08:09:00.883Z,101385.69
2022-10-11T08:11:30.122Z,101372.97
2022-10-11T08:13:59.345Z,101384.72
2022-10-11T08:16:28.571Z,101388.06
2022-10-11T08:18:57.165Z,101389.63
2022-10-11T08:21:26.939Z,101390.59
2022-10-11T08:23:54.755Z,101391.13
2022-10-11T08:26:22.573Z,101391.53
2022-10-11T08:28:50.405Z,101393.66
2022-10-11T08:31:18.351Z,101399.00
2022-10-11T08:33:47.878Z,101396.44
2022-10-11T08:36:15.856Z,101395.78
2022-10-11T08:38:43.608Z,101395.56
2022-10-11T08:41:30.539Z,101399.31
2022-10-11T08:44:14.897Z,101397.31
2022-10-11T08:46:47.731Z,101396.50
2022-10-11T08:49:19.193Z,101394.66
2022-10-11T08:51:51.932Z,101395.66
2022-10-11T08:54:24.069Z,101393.69
2022-10-11T08:56:52.267Z,101394.44
2022-10-11T08:59:30.114Z,101398.81
2022-10-11T09:02:05.017Z,101406.25
2022-10-11T09:04:35.199Z,101406.50
2022-10-11T09:07:12.430Z,101407.94
2022-10-11T09:09:58.040Z,101402.16
2022-10-11T09:12:40.805Z,101395.03
2022-10-11T09:15:18.725Z,101399.97
2022-10-11T09:18:10.029Z,101391.47
2022-10-11T09:20:49.001Z,101397.03
2022-10-11T09:23:32.893Z,101394.72
2022-10-11T09:26:07.484Z,101397.50
2022-10-11T09:28:46.790Z,101395.28
2022-10-11T09:31:14.597Z,101388.53
2022-10-11T09:33:46.928Z,101382.91
2022-10-11T09:36:23.525Z,101385.47
2022-10-11T09:38:55.855Z,101385.75
2022-10-11T09:41:30.375Z,101387.56
2022-10-11T09:43:58.130Z,101384.09
2022-10-11T09:46:32.839Z,101380.31
2022-10-11T09:49:03.775Z,101381.19
2022-10-11T09:51:33.893Z,101381.88
2022-10-11T09:54:04.927Z,101378.69
2022-10-11T09:56:41.127Z,101381.75
2022-10-11T09:59:25.365Z,101382.19
2022-10-11T10:02:17.789Z,101379.13
2022-10-11T10:04:56.837Z,101381.47
2022-10-11T10:07:26.713Z,101380.09
2022-10-11T10:09:55.023Z,101375.53
2022-10-11T10:12:27.187Z,101373.56
2022-10-11T10:15:18.757Z,101373.03
2022-10-11T10:17:50.658Z,101369.81
2022-10-11T10:20:22.814Z,101361.03
2022-10-11T10:22:53.699Z,101358.56
2022-10-11T10:25:28.591Z,101358.91
2022-10-11T10:28:01.276Z,101367.88
2022-10-11T10:30:34.535Z,101362.69
2022-10-11T10:33:06.960Z,101360.00
2022-10-11T10:35:39.523Z,101355.50
2022-10-11T10:38:16.421Z,101363.16
2022-10-11T10:40:48.447Z,101360.72
2022-10-11T10:43:19.213Z,101360.84
2022-10-11T10:46:04.204Z,101353.78
2022-10-11T10:49:18.765Z,101358.84
2022-10-11T10:51:37.094Z,101357.88
2022-10-11T10:54:16.462Z,101362.47
2022-10-11T10:56:51.381Z,101357.50
2022-10-11T10:59:43.163Z,101349.81
2022-10-11T11:02:38.954Z,101357.88
2022-10-11T11:05:16.411Z,101360.47
2022-10-11T11:07:49.422Z,101355.84
2022-10-11T11:10:21.988Z,101346.50
2022-10-11T11:12:57.274Z,101353.19
2022-10-11T11:15:35.584Z,101348.44
2022-10-11T11:18:20.288Z,101349.38
2022-10-11T11:21:03.082Z,101349.91
2022-10-11T11:23:39.359Z,101349.38
2022-10-11T11:26:16.547Z,101341.50
2022-10-11T11:29:12.422Z,101345.13
2022-10-11T11:31:57.313Z,101343.56
2022-10-11T11:34:29.595Z,101339.41
2022-10-11T11:37:01.067Z,101325.50
2022-10-11T11:39:34.012Z,101320.00
2022-10-11T11:42:13.112Z,101332.66
2022-10-11T11:44:45.098Z,101326.06
2022-10-11T11:47:20.017Z,101317.38
2022-10-11T11:49:52.143Z,101321.41
2022-10-11T11:52:27.348Z,101320.72
2022-10-11T11:55:06.518Z,101315.38
2022-10-11T11:57:50.540Z,101316.22
2022-10-11T12:00:21.743Z,101310.31
2022-10-11T12:02:54.384Z,101311.78
2022-10-11T12:05:24.303Z,101303.31
2022-10-11T12:07:56.695Z,101302.38
2022-10-11T12:10:28.558Z,101299.22
2022-10-11T12:13:20.166Z,101304.06
2022-10-11T12:16:10.957Z,101297.16
2022-10-11T12:18:50.972Z,101294.44
2022-10-11T12:21:31.914Z,101283.94
2022-10-11T12:24:00.979Z,101284.06
2022-10-11T12:26:42.923Z,101282.00
2022-10-11T12:29:47.010Z,101278.78
2022-10-11T12:32:51.335Z,101276.13
2022-10-11T12:36:01.390Z,101277.06
2022-10-11T12:38:34.235Z,101269.84
2022-10-11T12:41:38.268Z,101267.63
2022-10-11T12:44:14.388Z,101263.75
2022-10-11T12:47:11.174Z,101263.31
2022-10-11T12:49:54.400Z,101264.91
2022-10-11T12:52:28.349Z,101261.16
2022-10-11T12:55:08.897Z,101258.41
2022-10-11T12:57:52.629Z,101257.81
2022-10-11T13:00:25.964Z,101249.56
2022-10-11T13:02:56.339Z,101248.34
2022-10-11T13:05:27.576Z,101247.00
2022-10-11T13:07:58.735Z,101240.13
2022-10-11T13:10:31.764Z,101249.72
2022-10-11T13:13:04.347Z,101251.28
2022-10-11T13:15:32.577Z,101247.81
2022-10-11T13:18:02.529Z,101246.16
2022-10-11T13:20:32.289Z,101246.47
2022-10-11T13:23:00.053Z,101248.13
2022-10-11T13:25:29.888Z,101234.00
2022-10-11T13:27:59.478Z,101241.97
2022-10-11T13:30:30.532Z,101237.81
2022-10-11T13:32:59.916Z,101240.22
2022-10-11T13:35:33.571Z,101235.66
2022-10-11T13:38:02.139Z,101237.66
2022-10-11T13:40:31.822Z,101237.88
2022-10-11T13:43:00.113Z,101228.97
2022-10-11T13:45:30.633Z,101235.94
2022-10-11T13:47:58.786Z,101229.84
2022-10-11T13:50:32.261Z,101228.03
2022-10-11T13:53:04.420Z,101233.63
2022-10-11T13:55:35.270Z,101225.84
2022-10-11T13:58:05.092Z,101220.78
2022-10-11T14:00:35.324Z,101221.56
2022-10-11T14:03:08.064Z,101226.81
2022-10-11T14:05:39.947Z,101219.03
2022-10-11T14:08:23.550Z,101217.25
2022-10-11T14:10:56.686Z,101222.94
2022-10-11T14:13:31.061Z,101212.84
2022-10-11T14:16:07.507Z,101215.63
2022-10-11T14:18:50.900Z,101217.75
2022-10-11T14:21:25.630Z,101211.84
2022-10-11T14:23:56.436Z,101214.81
2022-10-11T14:26:26.282Z,101217.31
2022-10-11T14:28:57.940Z,101215.97
2022-10-11T14:31:26.009Z,101219.84
2022-10-11T14:33:54.780Z,101216.81
2022-10-11T14:36:23.106Z,101214.09
2022-10-11T14:38:50.999Z,101212.56
2022-10-11T14:41:20.056Z,101212.88
2022-10-11T14:43:47.900Z,101204.16
2022-10-11T14:46:22.825Z,101207.94
2022-10-11T14:48:55.629Z,101209.97
2022-10-11T14:51:28.921Z,101215.28
2022-10-11T14:53:56.727Z,101215.22
2022-10-11T14:56:25.940Z,101217.44
2022-10-11T14:58:53.785Z,101218.06
2022-10-11T15:01:21.625Z,101218.03
2022-10-11T15:03:49.466Z,101213.97
2022-10-11T15:06:20.296Z,101214.25
2022-10-11T15:08:48.120Z,101215.25
2022-10-11T15:11:18.300Z,101217.16
2022-10-11T15:13:47.485Z,101209.91
2022-10-11T15:16:17.290Z,101212.59
2022-10-11T15:18:50.660Z,101219.22
2022-10-11T15:21:19.702Z,101211.44
2022-10-11T15:23:47.650Z,101211.78
2022-10-11T15:26:16.394Z,101207.59
2022-10-11T15:28:44.334Z,101210.19
2022-10-11T15:31:14.042Z,101217.34
2022-10-11T15:33:42.505Z,101213.09
2022-10-11T15:36:14.201Z,101210.59
2022-10-11T15:38:42.702Z,101212.75
2022-10-11T15:41:12.897Z,101204.44
2022-10-11T15:43:40.824Z,101208.44
2022-10-11T15:46:09.227Z,101206.91
2022-10-11T15:48:38.866Z,101205.97
2022-10-11T15:51:07.750Z,101212.47
2022-10-11T15:53:35.733Z,101218.56
2022-10-11T15:56:05.903Z,101212.16
2022-10-11T15:58:36.393Z,101211.19
2022-10-11T16:01:07.762Z,101204.53
2022-10-11T16:03:36.555Z,101205.38
2022-10-11T16:06:06.153Z,101199.13
2022-10-11T16:08:34.116Z,101198.28
2022-10-11T16:11:02.235Z,101205.03
2022-10-11T16:13:30.034Z,101208.34
2022-10-11T16:15:58.278Z,101203.78
2022-10-11T16:18:26.044Z,101206.88
2022-10-11T16:20:53.773Z,101203.19
2022-10-11T16:23:23.648Z,101203.97
2022-10-11T16:25:58.035Z,101204.50
2022-10-11T16:28:26.289Z,101211.78
2022-10-11T16:30:54.649Z,101209.06
2022-10-11T16:33:22.657Z,101213.28
2022-10-11T16:35:50.682Z,101213.03
2022-10-11T16:38:18.437Z,101213.00
2022-10-11T16:40:47.516Z,101212.94
2022-10-11T16:43:15.320Z,101210.06
2022-10-11T16:45:42.985Z,101207.16
2022-10-11T16:48:10.733Z,101219.47
2022-10-11T16:50:39.705Z,101211.94
2022-10-11T16:53:07.731Z,101218.78
2022-10-11T16:55:35.434Z,101224.91
2022-10-11T16:58:04.509Z,101218.13
2022-10-11T17:00:32.289Z,101215.06
2022-10-11T17:03:00.058Z,101215.44
2022-10-11T17:05:27.900Z,101217.78
2022-10-11T17:07:55.608Z,101223.16
2022-10-11T17:10:39.372Z,101225.00
2022-10-11T17:13:08.645Z,101220.88
2022-10-11T17:15:37.244Z,101216.00
2022-10-11T17:18:05.145Z,101210.88
2022-10-11T17:20:32.926Z,101216.75
2022-10-11T17:23:00.625Z,101220.75
2022-10-11T17:25:28.370Z,101217.63
2022-10-11T17:27:56.371Z,101213.22
2022-10-11T17:30:26.084Z,101208.13
2022-10-11T17:32:53.909Z,101208.34
2022-10-11T17:35:21.648Z,101208.13
2022-10-11T17:37:49.898Z,101210.56
2022-10-11T17:40:17.775Z,101210.31
2022-10-11T17:42:47.682Z,101210.16
2022-10-11T17:45:15.526Z,101208.31
2022-10-11T17:47:44.586Z,101207.13
2022-10-11T17:50:12.505Z,101201.47
2022-10-11T17:52:40.488Z,101202.31
2022-10-11T17:55:08.830Z,101212.41
2022-10-11T17:57:36.758Z,101211.41
2022-10-11T18:00:06.518Z,101212.81
2022-10-11T18:02:34.244Z,101215.38
2022-10-11T18:05:04.253Z,101216.06
2022-10-11T18:07:31.977Z,101220.88
2022-10-11T18:09:59.679Z,101225.50
2022-10-11T18:12:27.443Z,101217.94
2022-10-11T18:14:55.168Z,101220.00
2022-10-11T18:17:22.927Z,101225.56
2022-10-11T18:19:50.737Z,101229.94
2022-10-11T18:22:19.862Z,101224.47
2022-10-11T18:24:47.777Z,101222.06
2022-10-11T18:27:15.585Z,101231.03
2022-10-11T18:29:43.605Z,101227.59
2022-10-11T18:32:12.066Z,101226.25
2022-10-11T18:34:39.958Z,101220.72
2022-10-11T18:37:07.773Z,101226.47
2022-10-11T18:39:36.864Z,101225.63
2022-10-11T18:42:05.065Z,101230.44
2022-10-11T18:44:32.868Z,101222.78
2022-10-11T18:47:00.580Z,101229.44
2022-10-11T18:49:28.433Z,101232.59
2022-10-11T18:51:56.381Z,101236.59
2022-10-11T18:54:24.103Z,101233.38
2022-10-11T18:56:53.207Z,101230.63
2022-10-11T18:59:21.135Z,101238.22
2022-10-11T19:01:52.081Z,101235.88
2022-10-11T19:04:20.713Z,101236.84
2022-10-11T19:06:49.427Z,101233.53
2022-10-11T19:09:21.564Z,101231.19
2022-10-11T19:11:50.473Z,101228.13
2022-10-11T19:14:22.652Z,101224.91
2022-10-11T19:16:52.185Z,101226.44
2022-10-11T19:19:21.067Z,101226.53
2022-10-11T19:21:49.529Z,101228.47
2022-10-11T19:24:17.633Z,101226.97
2022-10-11T19:26:45.533Z,101228.25
2022-10-11T19:29:15.301Z,101225.81
2022-10-11T19:31:46.079Z,101220.91
2022-10-11T19:34:14.140Z,101221.84
2022-10-11T19:36:42.858Z,101226.53
2022-10-11T19:39:12.916Z,101226.53
2022-10-11T19:41:41.368Z,101228.56
2022-10-11T19:44:09.352Z,101224.94
2022-10-11T19:46:50.876Z,101230.28
2022-10-11T19:49:22.627Z,101230.47
2022-10-11T19:51:50.993Z,101233.16
2022-10-11T19:54:19.779Z,101227.81
2022-10-11T19:56:47.712Z,101221.97
2022-10-11T19:59:15.865Z,101219.41
2022-10-11T20:01:47.907Z,101234.56
2022-10-11T20:04:50.925Z,101222.72
2022-10-11T20:07:08.693Z,101235.59
2022-10-11T20:09:36.678Z,101237.50
2022-10-11T20:12:04.615Z,101234.75
2022-10-11T20:14:32.358Z,101240.31
2022-10-11T20:17:00.431Z,101243.25
2022-10-11T20:19:31.738Z,101238.91
2022-10-11T20:22:00.140Z,101242.41
2022-10-11T20:24:32.638Z,101252.75
2022-10-11T20:27:01.455Z,101238.50
2022-10-11T20:29:29.205Z,101248.19
2022-10-11T20:31:58.956Z,101242.66
2022-10-11T20:34:27.649Z,101240.06
2022-10-11T20:36:56.772Z,101241.06
2022-10-11T20:39:24.811Z,101244.66
2022-10-11T20:41:52.635Z,101240.91
2022-10-11T20:44:20.383Z,101240.72
2022-10-11T20:46:48.357Z,101241.47
2022-10-11T20:49:16.115Z,101251.06
2022-10-11T20:51:43.877Z,101242.22
2022-10-11T20:54:13.482Z,101237.63
2022-10-11T20:56:41.909Z,101242.88
2022-10-11T20:59:10.074Z,101244.69
2022-10-11T21:01:40.376Z,101242.13
2022-10-11T21:04:09.302Z,101244.03
2022-10-11T21:06:37.028Z,101244.78
2022-10-11T21:09:04.884Z,101243.06
2022-10-11T21:11:35.517Z,101244.47
2022-10-11T21:14:04.783Z,101240.06
2022-10-11T21:16:33.175Z,101242.75
2022-10-11T21:19:02.846Z,101235.59
2022-10-11T21:21:31.642Z,101240.59
2022-10-11T21:24:00.865Z,101232.94
2022-10-11T21:26:29.667Z,101227.81
2022-10-11T21:29:00.270Z,101219.69
2022-10-11T21:31:33.585Z,101216.81
2022-10-11T21:34:01.946Z,101223.44
2022-10-11T21:36:29.643Z,101228.00
2022-10-11T21:38:57.725Z,101230.53
2022-10-11T21:41:29.076Z,101225.38
2022-10-11T21:43:58.590Z,101222.94
2022-10-11T21:46:47.935Z,101216.03
2022-10-11T21:49:16.398Z,101221.44
2022-10-11T21:51:44.346Z,101224.22
2022-10-11T21:54:12.126Z,101224.22
2022-10-11T21:56:39.839Z,101226.88
2022-10-11T21:59:12.020Z,101220.03
2022-10-11T22:01:40.794Z,101226.97
2022-10-11T22:04:09.005Z,101219.84
2022-10-11T22:06:37.403Z,101221.72
2022-10-11T22:09:05.338Z,101216.41
2022-10-11T22:11:33.205Z,101227.38
2022-10-11T22:14:00.889Z,101237.84
2022-10-11T22:16:29.961Z,101236.97
2022-10-11T22:18:57.733Z,101224.06
2022-10-11T22:21:25.504Z,101227.03
2022-10-11T22:23:54.686Z,101216.81
2022-10-11T22:26:24.826Z,101222.91
2022-10-11T22:28:53.344Z,101210.56
2022-10-11T22:31:22.059Z,101212.38
2022-10-11T22:33:54.468Z,101209.06
2022-10-11T22:36:24.150Z,101204.03
2022-10-11T22:38:52.457Z,101206.56
2022-10-11T22:41:20.482Z,101197.56
2022-10-11T22:43:48.158Z,101195.72
2022-10-11T22:46:16.002Z,101197.56
2022-10-11T22:48:43.737Z,101198.41
2022-10-11T22:51:13.613Z,101197.56
2022-10-11T22:53:41.254Z,101193.50
2022-10-11T22:56:10.716Z,101195.00
2022-10-11T22:58:38.511Z,101186.06
2022-10-11T23:01:10.361Z,101181.91
2022-10-11T23:03:38.310Z,101192.56
2022-10-11T23:06:06.458Z,101192.75
2022-10-11T23:08:36.632Z,101183.91
2022-10-11T23:11:05.665Z,101185.41
2022-10-11T23:13:33.921Z,101190.66
2022-10-11T23:16:06.674Z,101190.56
2022-10-11T23:18:34.180Z,101193.22
2022-10-11T23:21:02.491Z,101192.44
2022-10-11T23:23:30.407Z,101187.91
2022-10-11T23:26:04.941Z,101182.34
2022-10-11T23:28:32.861Z,101185.09
2022-10-11T23:31:00.676Z,101186.16
2022-10-11T23:33:29.058Z,101187.00
2022-10-11T23:35:56.811Z,101187.09
2022-10-11T23:38:24.576Z,101185.22
2022-10-11T23:40:52.343Z,101184.16
2022-10-11T23:43:21.575Z,101181.59
2022-10-11T23:45:49.416Z,101181.78
2022-10-11T23:48:17.131Z,101182.84
2022-10-11T23:50:44.819Z,101179.91
2022-10-11T23:53:14.185Z,101176.03
2022-10-11T23:55:42.959Z,101181.34
2022-10-11T23:58:10.728Z,101182.00
